Time;durP1;ratioP1;P1;durP2;ratioP2;P2;SDS_P1;SDS_P2;PMS_P1;PMS_P2;Temp;Humidity;BMP_temperature;BMP_pressure;BME280_temperature;BME280_humidity;BME280_pressure;Samples;Min_cycle;Max_cycle;Signal;HPM_P1;HPM_P2
2023/04/05 00:01:55;;;;;;;14.68;5.25;;;;;;;;;;5029295;28;20876;-74
2023/04/05 00:04:20;;;;;;;8.25;4.35;;;;;;;;;;5027741;28;20021;-74
2023/04/05 00:06:46;;;;;;;15.20;4.30;;;;;;;;;;5028617;28;20075;-74
2023/04/05 00:09:11;;;;;;;6.45;3.70;;;;;;;;;;5028556;28;20017;-74
2023/04/05 00:11:37;;;;;;;10.93;4.03;;;;;;;;;;5027470;28;20205;-74
2023/04/05 00:14:02;;;;;;;10.15;4.38;;;;;;;;;;5023629;28;20037;-73
2023/04/05 00:16:28;;;;;;;13.88;4.85;;;;;;;;;;5026188;28;20062;-73
2023/04/05 00:18:53;;;;;;;9.23;4.60;;;;;;;;;;5027313;28;20489;-73
2023/04/05 00:21:22;;;;;;;15.38;4.22;;;;;;;;;;5033412;28;20030;-73
2023/04/05 00:23:50;;;;;;;10.02;4.35;;;;;;;;;;5029489;28;20355;-73
2023/04/05 00:26:15;;;;;;;12.70;4.60;;;;;;;;;;5026641;28;20036;-73
2023/04/05 00:28:40;;;;;;;13.88;4.50;;;;;;;;;;5028107;28;20025;-73
2023/04/05 00:31:05;;;;;;;9.55;4.00;;;;;;;;;;5027217;28;20093;-73
2023/04/05 00:33:30;;;;;;;14.40;4.47;;;;;;;;;;5027790;28;20029;-73
2023/04/05 00:35:56;;;;;;;9.88;4.15;;;;;;;;;;5024403;28;20021;-73
2023/04/05 00:38:21;;;;;;;20.45;5.13;;;;;;;;;;5023752;28;20063;-73
2023/04/05 00:40:46;;;;;;;12.57;4.50;;;;;;;;;;5029578;28;20021;-73
2023/04/05 00:43:11;;;;;;;19.58;4.75;;;;;;;;;;5024394;28;20613;-73
2023/04/05 00:45:37;;;;;;;11.07;4.10;;;;;;;;;;5031056;28;20049;-73
2023/04/05 00:48:02;;;;;;;10.18;4.22;;;;;;;;;;5031824;28;20025;-73
2023/04/05 00:50:30;;;;;;;10.43;4.20;;;;;;;;;;5029519;28;20534;-73
2023/04/05 00:52:56;;;;;;;11.77;4.45;;;;;;;;;;5030159;28;20020;-74
2023/04/05 00:55:21;;;;;;;8.95;4.30;;;;;;;;;;5026556;28;20100;-74
2023/04/05 00:57:48;;;;;;;9.80;3.95;;;;;;;;;;5028595;28;20079;-74
2023/04/05 01:00:14;;;;;;;12.23;3.92;;;;;;;;;;5031328;28;20092;-73
2023/04/05 01:02:51;;;;;;;14.48;5.07;;;;;;;;;;5031609;28;20083;-73
2023/04/05 01:05:23;;;;;;;12.57;3.85;;;;;;;;;;5026434;28;20501;-73
2023/04/05 01:07:48;;;;;;;14.00;4.18;;;;;;;;;;5028432;28;20068;-73
2023/04/05 01:10:16;;;;;;;8.63;3.85;;;;;;;;;;5033815;28;20018;-74
2023/04/05 01:12:42;;;;;;;16.38;4.28;;;;;;;;;;5037157;28;20751;-74
2023/04/05 01:15:07;;;;;;;13.65;3.47;;;;;;;;;;5029570;28;20032;-74
2023/04/05 01:17:35;;;;;;;12.77;4.07;;;;;;;;;;5031517;28;20485;-73
2023/04/05 01:20:05;;;;;;;9.20;3.60;;;;;;;;;;5027099;28;20018;-73
2023/04/05 01:22:59;;;;;;;11.73;4.07;;;;;;;;;;5030793;28;20497;-73
2023/04/05 01:25:43;;;;;;;8.77;4.03;;;;;;;;;;5025539;28;20040;-73
2023/04/05 01:28:08;;;;;;;7.35;3.85;;;;;;;;;;5030284;28;20025;-73
2023/04/05 01:30:36;;;;;;;9.77;3.88;;;;;;;;;;5035236;28;20032;-73
2023/04/05 01:33:04;;;;;;;6.60;3.45;;;;;;;;;;5030383;28;20120;-73
2023/04/05 01:35:38;;;;;;;10.73;4.13;;;;;;;;;;5030173;28;20018;-73
2023/04/05 01:38:06;;;;;;;7.97;3.35;;;;;;;;;;5031967;28;20018;-74
2023/04/05 01:40:31;;;;;;;10.18;3.70;;;;;;;;;;5029680;28;20076;-73
2023/04/05 01:42:56;;;;;;;17.02;4.03;;;;;;;;;;5033913;28;20017;-73
2023/04/05 01:45:22;;;;;;;7.00;3.88;;;;;;;;;;5029977;28;20029;-74
2023/04/05 01:47:47;;;;;;;10.00;3.97;;;;;;;;;;5028370;28;20018;-74
2023/04/05 01:50:12;;;;;;;6.20;3.33;;;;;;;;;;5036963;28;20025;-73
2023/04/05 01:52:37;;;;;;;5.47;3.20;;;;;;;;;;5030641;28;20032;-73
2023/04/05 01:55:03;;;;;;;9.40;4.17;;;;;;;;;;5029780;28;20581;-73
2023/04/05 01:57:28;;;;;;;8.02;3.75;;;;;;;;;;5025341;28;20276;-73
2023/04/05 01:59:53;;;;;;;9.40;3.72;;;;;;;;;;5030236;28;20017;-73
2023/04/05 02:02:18;;;;;;;5.90;3.30;;;;;;;;;;5027877;28;20036;-72
2023/04/05 02:04:44;;;;;;;7.00;3.47;;;;;;;;;;5029777;28;20113;-73
2023/04/05 02:07:09;;;;;;;9.00;3.72;;;;;;;;;;5029247;28;20281;-73
2023/04/05 02:09:34;;;;;;;8.98;3.45;;;;;;;;;;5029571;28;20097;-73
2023/04/05 02:12:00;;;;;;;8.45;4.13;;;;;;;;;;5029898;28;20021;-73
2023/04/05 02:14:25;;;;;;;8.57;3.80;;;;;;;;;;5029493;28;20021;-73
2023/04/05 02:16:54;;;;;;;13.98;4.07;;;;;;;;;;5027741;28;20467;-73
2023/04/05 02:19:21;;;;;;;9.73;4.00;;;;;;;;;;5028326;28;20247;-73
2023/04/05 02:21:48;;;;;;;8.98;3.67;;;;;;;;;;5027210;28;20017;-74
2023/04/05 02:24:13;;;;;;;8.27;3.25;;;;;;;;;;5025464;28;20028;-73
2023/04/05 02:26:38;;;;;;;11.93;4.00;;;;;;;;;;5021646;28;20456;-73
2023/04/05 02:29:03;;;;;;;8.75;3.47;;;;;;;;;;5030201;28;20467;-73
2023/04/05 02:31:29;;;;;;;8.23;3.72;;;;;;;;;;5028816;28;20561;-73
2023/04/05 02:33:54;;;;;;;15.13;3.78;;;;;;;;;;5029671;28;20028;-73
2023/04/05 02:36:21;;;;;;;8.57;3.05;;;;;;;;;;5035266;28;20014;-73
2023/04/05 02:38:46;;;;;;;12.43;3.60;;;;;;;;;;5028820;28;20291;-73
2023/04/05 02:41:11;;;;;;;9.35;4.07;;;;;;;;;;5030043;28;20094;-73
2023/04/05 02:43:36;;;;;;;11.65;4.05;;;;;;;;;;5029058;28;20036;-74
2023/04/05 02:46:02;;;;;;;9.15;3.53;;;;;;;;;;5030177;28;20098;-73
2023/04/05 02:48:27;;;;;;;9.93;3.67;;;;;;;;;;5030133;28;20033;-73
2023/04/05 02:50:53;;;;;;;8.23;3.42;;;;;;;;;;5030369;28;20024;-73
2023/04/05 02:53:19;;;;;;;6.55;3.20;;;;;;;;;;5030096;28;20075;-73
2023/04/05 02:55:55;;;;;;;8.35;3.80;;;;;;;;;;5029549;28;20327;-73
2023/04/05 02:58:20;;;;;;;12.35;3.15;;;;;;;;;;5029113;28;20032;-73
2023/04/05 03:00:50;;;;;;;8.18;3.38;;;;;;;;;;5030122;28;20017;-73
2023/04/05 03:03:18;;;;;;;10.93;4.25;;;;;;;;;;5024498;28;20043;-73
2023/04/05 03:05:44;;;;;;;6.68;3.03;;;;;;;;;;5023960;28;20017;-73
2023/04/05 03:08:17;;;;;;;5.70;3.03;;;;;;;;;;5030525;28;20048;-72
2023/04/05 03:10:43;;;;;;;11.80;4.07;;;;;;;;;;5028858;28;20033;-73
2023/04/05 03:13:09;;;;;;;8.02;3.65;;;;;;;;;;5025751;28;20028;-73
2023/04/05 03:15:34;;;;;;;9.23;4.57;;;;;;;;;;5026262;28;20014;-73
2023/04/05 03:18:00;;;;;;;13.63;3.97;;;;;;;;;;5026397;28;20025;-73
2023/04/05 03:20:25;;;;;;;9.18;3.35;;;;;;;;;;5025634;28;20079;-73
2023/04/05 03:22:51;;;;;;;9.45;3.58;;;;;;;;;;5025255;28;20067;-73
2023/04/05 03:25:16;;;;;;;11.00;3.70;;;;;;;;;;5019144;28;20471;-73
2023/04/05 03:27:41;;;;;;;10.85;4.13;;;;;;;;;;5029654;28;20024;-73
2023/04/05 03:30:06;;;;;;;9.20;4.07;;;;;;;;;;5027389;28;20026;-73
2023/04/05 03:32:32;;;;;;;9.07;3.03;;;;;;;;;;5034872;28;20018;-73
2023/04/05 03:34:57;;;;;;;8.25;4.00;;;;;;;;;;5029072;28;20079;-73
2023/04/05 03:37:22;;;;;;;9.95;3.97;;;;;;;;;;5026896;28;20017;-73
2023/04/05 03:39:47;;;;;;;8.52;3.53;;;;;;;;;;5023885;28;20014;-73
2023/04/05 03:42:14;;;;;;;10.05;3.50;;;;;;;;;;5028606;28;20018;-73
2023/04/05 03:44:40;;;;;;;9.68;4.22;;;;;;;;;;5028686;28;20100;-73
2023/04/05 03:47:05;;;;;;;9.10;3.78;;;;;;;;;;5027417;28;20164;-73
2023/04/05 03:49:30;;;;;;;14.07;4.15;;;;;;;;;;5029993;28;20505;-73
2023/04/05 03:51:55;;;;;;;9.02;2.95;;;;;;;;;;5024601;28;20033;-73
2023/04/05 03:54:21;;;;;;;11.45;4.03;;;;;;;;;;5025980;28;20041;-73
2023/04/05 03:56:46;;;;;;;11.70;3.85;;;;;;;;;;5028462;28;20010;-73
2023/04/05 03:59:11;;;;;;;11.32;4.00;;;;;;;;;;5031204;28;20033;-73
2023/04/05 04:01:37;;;;;;;6.97;3.55;;;;;;;;;;5027576;28;20026;-73
2023/04/05 04:04:03;;;;;;;6.47;3.47;;;;;;;;;;5024174;28;20026;-74
2023/04/05 04:06:29;;;;;;;11.63;4.30;;;;;;;;;;5025556;28;20030;-74
2023/04/05 04:08:55;;;;;;;15.85;6.20;;;;;;;;;;5023656;28;20018;-73
2023/04/05 04:11:21;;;;;;;8.63;4.00;;;;;;;;;;5030663;28;20410;-73
2023/04/05 04:13:46;;;;;;;15.93;4.07;;;;;;;;;;5026930;28;20053;-73
2023/04/05 04:16:11;;;;;;;8.88;3.80;;;;;;;;;;5027247;28;20096;-73
2023/04/05 04:18:36;;;;;;;8.30;4.18;;;;;;;;;;5027265;28;20027;-73
2023/04/05 04:21:05;;;;;;;9.48;4.25;;;;;;;;;;5031118;28;20092;-73
2023/04/05 04:23:30;;;;;;;17.38;4.80;;;;;;;;;;5028062;28;20029;-73
2023/04/05 04:25:56;;;;;;;10.82;4.10;;;;;;;;;;5031260;28;20040;-73
2023/04/05 04:28:23;;;;;;;9.07;4.25;;;;;;;;;;5031238;28;20028;-73
2023/04/05 04:30:49;;;;;;;12.20;4.32;;;;;;;;;;5031881;28;20077;-73
2023/04/05 04:33:16;;;;;;;6.88;3.58;;;;;;;;;;5031167;28;20112;-73
2023/04/05 04:35:45;;;;;;;13.80;4.18;;;;;;;;;;5030497;28;20108;-74
2023/04/05 04:38:19;;;;;;;8.32;3.75;;;;;;;;;;5029275;28;20017;-73
2023/04/05 04:40:52;;;;;;;9.95;3.97;;;;;;;;;;5031463;28;20026;-73
2023/04/05 04:43:18;;;;;;;9.02;4.22;;;;;;;;;;5030993;28;20024;-73
2023/04/05 04:45:47;;;;;;;7.25;3.88;;;;;;;;;;5025280;28;20022;-73
2023/04/05 04:48:15;;;;;;;6.05;3.58;;;;;;;;;;5028008;28;20419;-72
2023/04/05 04:50:44;;;;;;;7.82;3.72;;;;;;;;;;5031257;28;20127;-72
2023/04/05 04:53:10;;;;;;;10.13;4.28;;;;;;;;;;5029542;28;20021;-72
2023/04/05 04:55:36;;;;;;;13.13;3.67;;;;;;;;;;5027988;28;20024;-71
2023/04/05 04:58:08;;;;;;;8.75;4.72;;;;;;;;;;5029757;28;20029;-72
2023/04/05 05:00:33;;;;;;;8.13;3.83;;;;;;;;;;5030990;28;20052;-71
2023/04/05 05:02:59;;;;;;;7.65;3.63;;;;;;;;;;5031405;28;20052;-71
2023/04/05 05:05:26;;;;;;;11.38;4.15;;;;;;;;;;5031128;28;20108;-71
2023/04/05 05:07:51;;;;;;;14.35;3.80;;;;;;;;;;5023755;28;20009;-71
2023/04/05 05:10:17;;;;;;;10.25;4.40;;;;;;;;;;5030787;28;20063;-71
2023/04/05 05:12:43;;;;;;;10.35;3.85;;;;;;;;;;5028407;28;20029;-71
2023/04/05 05:15:08;;;;;;;14.30;4.75;;;;;;;;;;5031418;28;20486;-72
2023/04/05 05:17:34;;;;;;;17.90;4.25;;;;;;;;;;5031501;28;20213;-72
2023/04/05 05:19:59;;;;;;;10.65;4.03;;;;;;;;;;5025974;28;20018;-71
2023/04/05 05:22:25;;;;;;;9.70;4.25;;;;;;;;;;5025945;28;20029;-71
2023/04/05 05:24:51;;;;;;;9.35;4.22;;;;;;;;;;5027040;28;20116;-72
2023/04/05 05:27:16;;;;;;;13.85;5.13;;;;;;;;;;5031193;28;20159;-73
2023/04/05 05:29:41;;;;;;;8.70;4.10;;;;;;;;;;5028432;28;20041;-73
2023/04/05 05:32:08;;;;;;;11.38;4.13;;;;;;;;;;5025686;28;20453;-71
2023/04/05 05:34:33;;;;;;;8.57;3.67;;;;;;;;;;5023609;28;20277;-72
2023/04/05 05:36:58;;;;;;;12.10;4.05;;;;;;;;;;5029212;28;20021;-72
2023/04/05 05:39:24;;;;;;;14.95;4.75;;;;;;;;;;5027266;28;20014;-71
2023/04/05 05:41:49;;;;;;;13.23;4.30;;;;;;;;;;5027030;28;20032;-71
2023/04/05 05:44:14;;;;;;;10.45;4.13;;;;;;;;;;5031899;28;20033;-73
2023/04/05 05:46:40;;;;;;;9.88;4.65;;;;;;;;;;5025244;28;20109;-73
2023/04/05 05:49:05;;;;;;;10.52;3.72;;;;;;;;;;5025043;28;20037;-72
2023/04/05 05:51:34;;;;;;;10.35;4.10;;;;;;;;;;5028433;28;20063;-71
2023/04/05 05:54:00;;;;;;;13.45;4.55;;;;;;;;;;5029462;28;20121;-72
2023/04/05 05:56:25;;;;;;;12.35;3.80;;;;;;;;;;5029231;28;20433;-72
2023/04/05 05:58:50;;;;;;;12.35;4.97;;;;;;;;;;5028714;28;20018;-71
2023/04/05 06:01:15;;;;;;;6.75;3.50;;;;;;;;;;5029646;28;20489;-72
2023/04/05 06:03:40;;;;;;;16.77;4.40;;;;;;;;;;5027682;28;20040;-72
2023/04/05 06:06:07;;;;;;;9.02;4.45;;;;;;;;;;5027213;28;20021;-71
2023/04/05 06:08:32;;;;;;;8.35;4.07;;;;;;;;;;5027499;28;20017;-71
2023/04/05 06:10:58;;;;;;;10.70;4.80;;;;;;;;;;5025418;28;20048;-71
2023/04/05 06:13:23;;;;;;;14.85;5.10;;;;;;;;;;5026451;28;20091;-74
2023/04/05 06:15:49;;;;;;;19.17;5.10;;;;;;;;;;5030239;28;20048;-73
2023/04/05 06:18:14;;;;;;;10.07;4.10;;;;;;;;;;5028599;28;20014;-72
2023/04/05 06:20:41;;;;;;;10.15;4.10;;;;;;;;;;5029214;28;20017;-71
2023/04/05 06:23:07;;;;;;;14.27;3.38;;;;;;;;;;5044954;28;20052;-71
2023/04/05 06:25:32;;;;;;;8.00;3.75;;;;;;;;;;5029097;28;20049;-71
2023/04/05 06:27:57;;;;;;;6.03;3.38;;;;;;;;;;5027437;28;20437;-74
2023/04/05 06:30:22;;;;;;;9.02;4.40;;;;;;;;;;5025712;28;20032;-73
2023/04/05 06:32:53;;;;;;;8.55;3.90;;;;;;;;;;5027903;28;20033;-74
2023/04/05 06:35:18;;;;;;;13.73;4.97;;;;;;;;;;5028484;28;20021;-74
2023/04/05 06:37:43;;;;;;;6.90;3.85;;;;;;;;;;5026308;28;20489;-73
2023/04/05 06:40:08;;;;;;;10.68;4.07;;;;;;;;;;5029373;28;20498;-73
2023/04/05 06:42:33;;;;;;;11.77;4.53;;;;;;;;;;5028609;28;20060;-73
2023/04/05 06:44:59;;;;;;;18.47;4.63;;;;;;;;;;5033899;28;20025;-73
2023/04/05 06:47:24;;;;;;;13.25;4.35;;;;;;;;;;5026299;28;20299;-73
2023/04/05 06:49:49;;;;;;;8.37;4.03;;;;;;;;;;5029709;28;20033;-73
2023/04/05 06:52:15;;;;;;;10.20;4.65;;;;;;;;;;5031323;28;20609;-73
2023/04/05 06:54:40;;;;;;;12.13;3.90;;;;;;;;;;5026405;28;20029;-73
2023/04/05 06:57:05;;;;;;;6.80;3.97;;;;;;;;;;5024800;28;20032;-73
2023/04/05 06:59:30;;;;;;;13.95;4.05;;;;;;;;;;5027587;28;20268;-74
2023/04/05 07:01:55;;;;;;;9.02;3.78;;;;;;;;;;5023631;28;20025;-72
2023/04/05 07:04:21;;;;;;;10.57;3.97;;;;;;;;;;5025627;28;20033;-73
2023/04/05 07:06:46;;;;;;;11.13;4.95;;;;;;;;;;5027511;28;20271;-72
2023/04/05 07:09:11;;;;;;;9.10;3.73;;;;;;;;;;5026360;28;20421;-72
2023/04/05 07:11:38;;;;;;;8.95;4.80;;;;;;;;;;5028728;28;20371;-72
2023/04/05 07:14:04;;;;;;;8.75;3.65;;;;;;;;;;5024395;28;20395;-72
2023/04/05 07:16:29;;;;;;;7.65;3.20;;;;;;;;;;5019638;28;20023;-71
2023/04/05 07:18:55;;;;;;;6.82;3.75;;;;;;;;;;5026779;28;20025;-72
2023/04/05 07:21:20;;;;;;;12.93;3.55;;;;;;;;;;5027299;28;20029;-72
2023/04/05 07:23:46;;;;;;;10.43;2.73;;;;;;;;;;5025231;28;20053;-71
2023/04/05 07:26:12;;;;;;;7.72;4.03;;;;;;;;;;5028797;28;20764;-72
2023/04/05 07:28:37;;;;;;;11.98;3.42;;;;;;;;;;5042363;28;20030;-73
2023/04/05 07:31:03;;;;;;;10.35;3.50;;;;;;;;;;5027166;28;20079;-72
2023/04/05 07:33:28;;;;;;;16.80;3.20;;;;;;;;;;5021731;28;20382;-72
2023/04/05 07:35:54;;;;;;;7.97;3.30;;;;;;;;;;5026164;28;20022;-72
2023/04/05 07:38:20;;;;;;;4.03;2.70;;;;;;;;;;5022593;28;20773;-72
2023/04/05 07:40:46;;;;;;;8.95;3.22;;;;;;;;;;5025822;28;20029;-72
2023/04/05 07:43:12;;;;;;;5.88;3.13;;;;;;;;;;5023379;28;20029;-71
2023/04/05 07:45:37;;;;;;;9.27;3.42;;;;;;;;;;5026093;28;20370;-72
2023/04/05 07:48:02;;;;;;;4.37;2.90;;;;;;;;;;5027435;28;20416;-72
2023/04/05 07:50:28;;;;;;;4.65;2.90;;;;;;;;;;5022169;28;20756;-72
2023/04/05 07:52:53;;;;;;;4.50;2.70;;;;;;;;;;5026594;28;20490;-70
2023/04/05 07:55:18;;;;;;;6.57;3.00;;;;;;;;;;5034586;28;20295;-70
2023/04/05 07:57:43;;;;;;;5.70;2.70;;;;;;;;;;5029897;28;20276;-70
2023/04/05 08:00:11;;;;;;;8.50;3.13;;;;;;;;;;5028319;28;20474;-70
2023/04/05 08:02:37;;;;;;;7.35;3.03;;;;;;;;;;5021711;28;20438;-70
2023/04/05 08:05:02;;;;;;;7.03;3.27;;;;;;;;;;5025982;28;20083;-70
2023/04/05 08:07:27;;;;;;;9.10;3.50;;;;;;;;;;5018990;28;20280;-71
2023/04/05 08:09:56;;;;;;;8.18;2.85;;;;;;;;;;5027698;28;20022;-71
2023/04/05 08:12:21;;;;;;;5.80;2.85;;;;;;;;;;5019841;28;20433;-69
2023/04/05 08:14:46;;;;;;;5.80;3.00;;;;;;;;;;5027295;28;20025;-70
2023/04/05 08:17:13;;;;;;;5.43;2.20;;;;;;;;;;5027771;28;20383;-69
2023/04/05 08:19:38;;;;;;;5.90;2.80;;;;;;;;;;5026924;28;20522;-69
2023/04/05 08:22:03;;;;;;;4.80;3.07;;;;;;;;;;5024624;28;20029;-69
2023/04/05 08:24:29;;;;;;;6.13;3.03;;;;;;;;;;5027221;28;20025;-69
2023/04/05 08:26:55;;;;;;;8.60;3.13;;;;;;;;;;5025419;28;21830;-70
2023/04/05 08:29:20;;;;;;;7.20;2.90;;;;;;;;;;5030893;28;20021;-70
2023/04/05 08:31:45;;;;;;;9.57;3.60;;;;;;;;;;5029279;28;20466;-70
2023/04/05 08:34:10;;;;;;;3.22;2.50;;;;;;;;;;5030104;28;20017;-70
2023/04/05 08:36:36;;;;;;;4.90;2.70;;;;;;;;;;5030300;28;20512;-69
2023/04/05 08:39:01;;;;;;;6.90;3.53;;;;;;;;;;5028958;28;20261;-69
2023/04/05 08:41:29;;;;;;;8.15;3.20;;;;;;;;;;5031882;28;20278;-69
2023/04/05 08:44:01;;;;;;;8.27;2.92;;;;;;;;;;5025629;28;20076;-69
2023/04/05 08:46:27;;;;;;;5.70;2.70;;;;;;;;;;5025408;28;20025;-69
2023/04/05 08:48:53;;;;;;;5.45;2.97;;;;;;;;;;5025050;28;20025;-69
2023/04/05 08:51:21;;;;;;;8.27;3.10;;;;;;;;;;5028483;28;20020;-69
2023/04/05 08:53:47;;;;;;;4.40;2.28;;;;;;;;;;5028905;28;20474;-69
2023/04/05 08:56:14;;;;;;;6.45;2.75;;;;;;;;;;5024172;28;20025;-69
2023/04/05 08:58:42;;;;;;;9.68;3.25;;;;;;;;;;5025478;28;20025;-70
2023/04/05 09:01:09;;;;;;;6.93;3.13;;;;;;;;;;5022679;28;20030;-70
2023/04/05 09:03:36;;;;;;;5.18;2.47;;;;;;;;;;5027147;28;20025;-70
2023/04/05 09:06:05;;;;;;;7.60;3.40;;;;;;;;;;5024549;28;20030;-70
2023/04/05 09:08:30;;;;;;;4.93;3.03;;;;;;;;;;5024673;28;20025;-70
2023/04/05 09:10:55;;;;;;;12.65;4.13;;;;;;;;;;5029118;28;20033;-70
2023/04/05 09:13:20;;;;;;;6.40;3.90;;;;;;;;;;5023097;28;20108;-70
2023/04/05 09:15:46;;;;;;;6.70;4.00;;;;;;;;;;5023040;28;20280;-69
2023/04/05 09:18:11;;;;;;;6.72;3.17;;;;;;;;;;5020334;28;20345;-69
2023/04/05 09:20:37;;;;;;;11.40;3.75;;;;;;;;;;5026565;28;20108;-69
2023/04/05 09:23:02;;;;;;;10.23;3.60;;;;;;;;;;5019163;28;20574;-70
2023/04/05 09:25:38;;;;;;;9.10;4.10;;;;;;;;;;5019206;28;20017;-70
2023/04/05 09:28:07;;;;;;;7.50;2.97;;;;;;;;;;5021488;28;20273;-70
2023/04/05 09:30:32;;;;;;;7.60;3.65;;;;;;;;;;5025279;28;20519;-70
2023/04/05 09:32:57;;;;;;;11.85;3.25;;;;;;;;;;5027274;28;20036;-69
2023/04/05 09:35:24;;;;;;;5.25;3.38;;;;;;;;;;5026914;28;20028;-70
2023/04/05 09:37:52;;;;;;;6.68;3.42;;;;;;;;;;5021361;28;20021;-70
2023/04/05 09:40:17;;;;;;;7.18;3.50;;;;;;;;;;5026790;28;20455;-70
2023/04/05 09:42:46;;;;;;;9.88;3.38;;;;;;;;;;5027211;28;20021;-69
2023/04/05 09:45:12;;;;;;;7.40;3.13;;;;;;;;;;5022874;28;20406;-70
2023/04/05 09:47:37;;;;;;;8.80;3.72;;;;;;;;;;5023326;28;20029;-70
2023/04/05 09:50:22;;;;;;;9.32;4.40;;;;;;;;;;5025285;28;20026;-71
2023/04/05 09:52:48;;;;;;;8.05;3.92;;;;;;;;;;5024364;28;20091;-72
2023/04/05 09:55:13;;;;;;;6.72;3.75;;;;;;;;;;5028679;28;20026;-72
2023/04/05 09:57:39;;;;;;;6.95;3.80;;;;;;;;;;5022023;28;20186;-72
2023/04/05 10:00:05;;;;;;;7.57;3.85;;;;;;;;;;5026499;28;20026;-73
2023/04/05 10:02:37;;;;;;;7.35;3.85;;;;;;;;;;5022339;28;20037;-72
2023/04/05 10:05:06;;;;;;;4.10;2.03;;;;;;;;;;5023998;28;20037;-72
2023/04/05 10:07:32;;;;;;;5.07;2.97;;;;;;;;;;5026224;28;20398;-72
2023/04/05 10:09:57;;;;;;;10.50;3.58;;;;;;;;;;5029677;28;20021;-72
2023/04/05 10:12:26;;;;;;;8.30;3.80;;;;;;;;;;5027512;28;20056;-72
2023/04/05 10:14:52;;;;;;;6.93;3.03;;;;;;;;;;5029544;28;20284;-72
2023/04/05 10:17:23;;;;;;;6.05;3.58;;;;;;;;;;5030122;28;20360;-72
2023/04/05 10:20:07;;;;;;;7.00;3.10;;;;;;;;;;5024812;28;20017;-72
2023/04/05 10:22:35;;;;;;;7.78;4.03;;;;;;;;;;5029115;28;20021;-72
2023/04/05 10:25:05;;;;;;;6.72;3.70;;;;;;;;;;5023100;28;20379;-72
2023/04/05 10:27:33;;;;;;;6.25;3.13;;;;;;;;;;5022237;28;20049;-73
2023/04/05 10:30:07;;;;;;;6.13;2.88;;;;;;;;;;5023504;28;20620;-73
2023/04/05 10:32:35;;;;;;;7.45;3.95;;;;;;;;;;5028151;28;20028;-73
2023/04/05 10:35:07;;;;;;;8.27;3.85;;;;;;;;;;5020223;28;20021;-73
2023/04/05 10:37:52;;;;;;;9.32;4.38;;;;;;;;;;5026268;28;20030;-72
2023/04/05 10:40:19;;;;;;;7.47;3.97;;;;;;;;;;5022623;28;21368;-73
2023/04/05 10:42:45;;;;;;;9.90;3.83;;;;;;;;;;5024343;28;20062;-72
2023/04/05 10:45:11;;;;;;;8.25;3.95;;;;;;;;;;5018873;28;20029;-72
2023/04/05 10:47:41;;;;;;;8.68;3.67;;;;;;;;;;5026805;28;20479;-72
2023/04/05 10:50:07;;;;;;;10.13;4.32;;;;;;;;;;5024718;28;20083;-72
2023/04/05 10:52:33;;;;;;;9.90;4.10;;;;;;;;;;5022426;28;20371;-72
2023/04/05 10:54:59;;;;;;;7.47;4.20;;;;;;;;;;5026050;28;20068;-73
2023/04/05 10:57:24;;;;;;;7.90;4.55;;;;;;;;;;5023640;28;20109;-73
2023/04/05 10:59:50;;;;;;;8.80;4.22;;;;;;;;;;5042973;28;20105;-73
2023/04/05 11:02:16;;;;;;;6.28;3.92;;;;;;;;;;5025090;28;20021;-72
2023/04/05 11:04:41;;;;;;;9.93;4.15;;;;;;;;;;5026281;28;20021;-72
2023/04/05 11:07:16;;;;;;;5.60;2.67;;;;;;;;;;5028277;28;20112;-72
2023/04/05 11:09:51;;;;;;;8.38;4.35;;;;;;;;;;5026213;28;20033;-73
2023/04/05 11:12:16;;;;;;;8.68;3.95;;;;;;;;;;5017030;28;20479;-73
2023/04/05 11:14:43;;;;;;;3.27;1.47;;;;;;;;;;5024277;28;20044;-73
2023/04/05 11:17:24;;;;;;;8.65;4.13;;;;;;;;;;5026660;28;20268;-73
2023/04/05 11:19:51;;;;;;;10.05;4.45;;;;;;;;;;5025637;28;20025;-73
2023/04/05 11:22:27;;;;;;;9.32;3.70;;;;;;;;;;5021789;28;20047;-73
2023/04/05 11:24:55;;;;;;;7.47;3.58;;;;;;;;;;5026175;28;20029;-73
2023/04/05 11:27:24;;;;;;;8.70;3.95;;;;;;;;;;5025114;28;20013;-73
2023/04/05 11:29:50;;;;;;;6.97;4.25;;;;;;;;;;5023446;28;20022;-73
2023/04/05 11:32:16;;;;;;;10.20;4.82;;;;;;;;;;5018185;28;20434;-73
2023/04/05 11:34:42;;;;;;;8.77;4.80;;;;;;;;;;5025329;28;20033;-73
2023/04/05 11:37:07;;;;;;;7.32;4.68;;;;;;;;;;5023801;28;20582;-73
2023/04/05 11:39:32;;;;;;;10.70;5.70;;;;;;;;;;5022644;28;20105;-73
2023/04/05 11:42:01;;;;;;;7.83;4.23;;;;;;;;;;5026782;28;20383;-72
2023/04/05 11:44:46;;;;;;;8.75;4.63;;;;;;;;;;5022826;28;20304;-73
2023/04/05 11:47:12;;;;;;;8.88;5.03;;;;;;;;;;5020404;28;20021;-72
2023/04/05 11:49:38;;;;;;;7.93;4.63;;;;;;;;;;5023127;28;20025;-74
2023/04/05 11:52:29;;;;;;;11.88;5.43;;;;;;;;;;5019351;28;20033;-73
2023/04/05 11:54:55;;;;;;;9.57;5.65;;;;;;;;;;5015989;28;20041;-73
2023/04/05 11:57:21;;;;;;;7.23;4.87;;;;;;;;;;5022857;28;20025;-73
2023/04/05 11:59:48;;;;;;;7.95;4.78;;;;;;;;;;5023058;28;20367;-73
2023/04/05 12:02:13;;;;;;;7.82;4.57;;;;;;;;;;5024402;28;20021;-73
2023/04/05 12:04:39;;;;;;;6.85;4.40;;;;;;;;;;5022576;28;20104;-73
2023/04/05 12:07:08;;;;;;;10.20;4.63;;;;;;;;;;5023919;28;20149;-74
2023/04/05 12:09:33;;;;;;;8.15;4.05;;;;;;;;;;5026401;28;20036;-73
2023/04/05 12:11:58;;;;;;;10.93;4.40;;;;;;;;;;5022478;28;20033;-73
2023/04/05 12:14:24;;;;;;;8.73;4.77;;;;;;;;;;5025469;28;20284;-73
2023/04/05 12:16:49;;;;;;;7.10;4.15;;;;;;;;;;5025532;28;20757;-74
2023/04/05 12:19:15;;;;;;;6.88;4.40;;;;;;;;;;5023898;28;20013;-73
2023/04/05 12:21:40;;;;;;;8.27;4.93;;;;;;;;;;5019231;28;20501;-73
2023/04/05 12:24:05;;;;;;;13.02;5.82;;;;;;;;;;5026019;28;20378;-74
2023/04/05 12:26:33;;;;;;;9.68;5.68;;;;;;;;;;5023395;28;20348;-73
2023/04/05 12:29:01;;;;;;;9.88;4.93;;;;;;;;;;5025602;28;20029;-73
2023/04/05 12:31:36;;;;;;;12.02;4.38;;;;;;;;;;5023506;28;20021;-73
2023/04/05 12:34:01;;;;;;;3.20;2.00;;;;;;;;;;5025955;28;20025;-73
2023/04/05 12:36:26;;;;;;;12.90;4.43;;;;;;;;;;5021804;28;20040;-74
2023/04/05 12:38:53;;;;;;;9.95;4.88;;;;;;;;;;5021614;28;20916;-73
2023/04/05 12:41:25;;;;;;;8.60;4.55;;;;;;;;;;5021264;28;20018;-72
2023/04/05 12:43:57;;;;;;;9.45;4.97;;;;;;;;;;5029067;28;20039;-72
2023/04/05 12:46:36;;;;;;;11.38;4.88;;;;;;;;;;5023340;28;20021;-73
2023/04/05 12:49:03;;;;;;;12.85;5.07;;;;;;;;;;5024786;28;20091;-73
2023/04/05 12:51:30;;;;;;;10.73;4.97;;;;;;;;;;5026566;28;20029;-73
2023/04/05 12:53:55;;;;;;;10.30;3.63;;;;;;;;;;5027651;28;20021;-73
2023/04/05 12:56:20;;;;;;;4.68;2.90;;;;;;;;;;5024217;28;20025;-74
2023/04/05 12:58:49;;;;;;;8.38;4.53;;;;;;;;;;5021557;28;20044;-73
2023/04/05 13:01:14;;;;;;;5.47;3.60;;;;;;;;;;5022914;28;20486;-73
2023/04/05 13:03:42;;;;;;;13.60;5.27;;;;;;;;;;5026059;28;20111;-73
2023/04/05 13:06:08;;;;;;;3.60;2.38;;;;;;;;;;5027849;28;20284;-73
2023/04/05 13:08:33;;;;;;;10.15;4.47;;;;;;;;;;5028882;28;20045;-74
2023/04/05 13:10:59;;;;;;;10.50;5.53;;;;;;;;;;5025072;28;20049;-74
2023/04/05 13:13:24;;;;;;;7.25;4.63;;;;;;;;;;5026663;28;20121;-74
2023/04/05 13:15:50;;;;;;;9.88;4.32;;;;;;;;;;5030543;28;20093;-74
2023/04/05 13:18:15;;;;;;;8.17;4.77;;;;;;;;;;5028058;28;20021;-74
2023/04/05 13:20:43;;;;;;;8.27;5.10;;;;;;;;;;5028879;28;20276;-74
2023/04/05 13:23:10;;;;;;;13.63;5.68;;;;;;;;;;5024740;28;20268;-74
2023/04/05 13:25:36;;;;;;;13.55;5.20;;;;;;;;;;5030534;28;20036;-74
2023/04/05 13:28:01;;;;;;;11.73;5.13;;;;;;;;;;5030688;28;20096;-74
2023/04/05 13:30:27;;;;;;;8.20;5.15;;;;;;;;;;5028393;28;20025;-74
2023/04/05 13:32:52;;;;;;;10.98;4.70;;;;;;;;;;5030033;28;20121;-74
2023/04/05 13:35:17;;;;;;;7.60;4.73;;;;;;;;;;5030159;28;20436;-74
2023/04/05 13:37:42;;;;;;;10.57;5.30;;;;;;;;;;5032030;28;20268;-74
2023/04/05 13:40:07;;;;;;;8.15;4.88;;;;;;;;;;5027372;28;20325;-74
2023/04/05 13:42:33;;;;;;;9.30;5.28;;;;;;;;;;5028068;28;20517;-74
2023/04/05 13:44:58;;;;;;;10.32;4.82;;;;;;;;;;5028636;28;20490;-74
2023/04/05 13:47:23;;;;;;;10.50;5.30;;;;;;;;;;5025341;28;20029;-75
2023/04/05 13:49:48;;;;;;;11.00;4.70;;;;;;;;;;5026480;28;20470;-75
2023/04/05 13:52:14;;;;;;;9.05;5.03;;;;;;;;;;5027221;28;20273;-74
2023/04/05 13:54:39;;;;;;;11.00;5.32;;;;;;;;;;5025040;28;20379;-74
2023/04/05 13:57:05;;;;;;;11.37;5.53;;;;;;;;;;5025177;28;20022;-75
2023/04/05 13:59:30;;;;;;;9.88;4.72;;;;;;;;;;5028813;28;20745;-75
2023/04/05 14:01:56;;;;;;;6.00;4.18;;;;;;;;;;5026937;28;20025;-75
2023/04/05 14:04:21;;;;;;;9.27;4.80;;;;;;;;;;5028439;28;20048;-74
2023/04/05 14:06:46;;;;;;;12.45;5.68;;;;;;;;;;5025834;28;20091;-74
2023/04/05 14:09:11;;;;;;;8.90;4.83;;;;;;;;;;5029251;28;20024;-74
2023/04/05 14:11:37;;;;;;;11.93;5.13;;;;;;;;;;5028071;28;20375;-75
2023/04/05 14:14:02;;;;;;;11.82;5.60;;;;;;;;;;5027769;28;20068;-74
2023/04/05 14:16:28;;;;;;;10.63;5.40;;;;;;;;;;5026300;28;20029;-75
2023/04/05 14:18:53;;;;;;;11.02;5.20;;;;;;;;;;5030263;28;20021;-75
2023/04/05 14:21:18;;;;;;;9.93;4.63;;;;;;;;;;5024431;28;20248;-75
2023/04/05 14:23:44;;;;;;;14.57;7.00;;;;;;;;;;5029806;28;20020;-74
2023/04/05 14:26:10;;;;;;;12.45;5.85;;;;;;;;;;5029931;28;20271;-74
2023/04/05 14:28:35;;;;;;;13.82;6.70;;;;;;;;;;5025639;28;20371;-74
2023/04/05 14:31:00;;;;;;;11.20;6.07;;;;;;;;;;5025957;28;20033;-74
2023/04/05 14:33:26;;;;;;;10.98;5.10;;;;;;;;;;5026798;28;20287;-74
2023/04/05 14:35:51;;;;;;;9.15;5.07;;;;;;;;;;5029477;28;20021;-74